Terminal Aerodrome Forecast
Issued by NWS Jackson, MS

Home | Current Version | Previous Version | Text Only | Print | Product List | Glossary On
Versions: 1 2 3 4 5 6 7 8 9 10 11 12 13 14
000
FTUS44 KJAN 220400 AAA
TAFGWO
TAF AMD
KGWO 220419Z 2204/2224 VRB04KT P6SM BKN008
     FM220700 16006KT 6SM BR OVC007
     FM221000 16005KT 4SM BR OVC005
     FM221600 18012KT P6SM OVC007
     FM221800 18015G21KT P6SM OVC012=

USA.gov is the U.S. government's official web portal to all federal, state and local government web resources and services.